sensor_id;sensor_type;location;lat;lon;timestamp;pressure;altitude;pressure_sealevel;temperature;humidity
49611;BME280;35515;48.766;9.176;2023-05-19T00:00:27;98816.34;;;13.01;55.99
49611;BME280;35515;48.766;9.176;2023-05-19T00:02:55;98815.94;;;12.91;56.70
49611;BME280;35515;48.766;9.176;2023-05-19T00:05:22;98820.16;;;12.86;57.33
49611;BME280;35515;48.766;9.176;2023-05-19T00:07:49;98830.16;;;12.86;56.76
49611;BME280;35515;48.766;9.176;2023-05-19T00:10:17;98821.19;;;12.85;56.17
49611;BME280;35515;48.766;9.176;2023-05-19T00:12:46;98817.81;;;12.90;55.27
49611;BME280;35515;48.766;9.176;2023-05-19T00:15:14;98818.91;;;12.82;56.54
49611;BME280;35515;48.766;9.176;2023-05-19T00:17:40;98819.75;;;12.76;56.08
49611;BME280;35515;48.766;9.176;2023-05-19T00:20:07;98817.22;;;12.81;56.23
49611;BME280;35515;48.766;9.176;2023-05-19T00:22:36;98816.59;;;12.79;56.59
49611;BME280;35515;48.766;9.176;2023-05-19T00:25:03;98813.28;;;12.70;57.58
49611;BME280;35515;48.766;9.176;2023-05-19T00:27:30;98809.50;;;12.71;57.37
49611;BME280;35515;48.766;9.176;2023-05-19T00:29:58;98810.13;;;12.67;57.93
49611;BME280;35515;48.766;9.176;2023-05-19T00:32:24;98815.56;;;12.67;58.70
49611;BME280;35515;48.766;9.176;2023-05-19T00:34:51;98807.63;;;12.59;59.50
49611;BME280;35515;48.766;9.176;2023-05-19T00:37:17;98808.25;;;12.61;59.60
49611;BME280;35515;48.766;9.176;2023-05-19T00:39:44;98807.63;;;12.65;59.76
49611;BME280;35515;48.766;9.176;2023-05-19T00:42:11;98806.59;;;12.60;59.83
49611;BME280;35515;48.766;9.176;2023-05-19T00:44:39;98808.06;;;12.56;60.46
49611;BME280;35515;48.766;9.176;2023-05-19T00:47:07;98805.75;;;12.52;60.68
49611;BME280;35515;48.766;9.176;2023-05-19T00:49:34;98807.84;;;12.50;60.64
49611;BME280;35515;48.766;9.176;2023-05-19T00:52:01;98811.84;;;12.48;60.64
49611;BME280;35515;48.766;9.176;2023-05-19T00:54:28;98804.72;;;12.53;60.67
49611;BME280;35515;48.766;9.176;2023-05-19T00:56:55;98800.53;;;12.51;58.97
49611;BME280;35515;48.766;9.176;2023-05-19T00:59:22;98801.34;;;12.51;59.53
49611;BME280;35515;48.766;9.176;2023-05-19T01:01:49;98799.28;;;12.53;60.53
49611;BME280;35515;48.766;9.176;2023-05-19T01:04:18;98800.97;;;12.54;60.47
49611;BME280;35515;48.766;9.176;2023-05-19T01:06:46;98799.06;;;12.42;61.21
49611;BME280;35515;48.766;9.176;2023-05-19T01:09:13;98805.53;;;12.41;61.13
49611;BME280;35515;48.766;9.176;2023-05-19T01:11:40;98804.94;;;12.32;61.77
49611;BME280;35515;48.766;9.176;2023-05-19T01:14:06;98799.72;;;12.37;61.52
49611;BME280;35515;48.766;9.176;2023-05-19T01:16:36;98795.94;;;12.38;60.47
49611;BME280;35515;48.766;9.176;2023-05-19T01:19:13;98790.50;;;12.38;59.68
49611;BME280;35515;48.766;9.176;2023-05-19T01:22:11;98805.56;;;12.34;58.87
49611;BME280;35515;48.766;9.176;2023-05-19T01:25:10;98808.06;;;12.42;59.57
49611;BME280;35515;48.766;9.176;2023-05-19T01:30:53;98811.84;;;12.34;60.38
49611;BME280;35515;48.766;9.176;2023-05-19T01:33:21;98815.38;;;12.35;59.76
49611;BME280;35515;48.766;9.176;2023-05-19T01:35:49;98808.06;;;12.42;58.77
49611;BME280;35515;48.766;9.176;2023-05-19T01:38:18;98809.94;;;12.35;59.36
49611;BME280;35515;48.766;9.176;2023-05-19T01:40:46;98817.66;;;12.38;58.87
49611;BME280;35515;48.766;9.176;2023-05-19T01:43:17;98811.41;;;12.37;58.75
49611;BME280;35515;48.766;9.176;2023-05-19T01:45:45;98815.16;;;12.30;58.38
49611;BME280;35515;48.766;9.176;2023-05-19T01:48:13;98814.94;;;12.38;57.89
49611;BME280;35515;48.766;9.176;2023-05-19T01:50:41;98807.22;;;12.35;58.45
49611;BME280;35515;48.766;9.176;2023-05-19T01:53:07;98807.00;;;12.36;59.47
49611;BME280;35515;48.766;9.176;2023-05-19T01:55:34;98809.72;;;12.30;59.60
49611;BME280;35515;48.766;9.176;2023-05-19T01:58:08;98805.75;;;12.32;59.71
49611;BME280;35515;48.766;9.176;2023-05-19T02:00:44;98807.22;;;12.35;59.80
49611;BME280;35515;48.766;9.176;2023-05-19T02:03:34;98809.34;;;12.26;59.54
49611;BME280;35515;48.766;9.176;2023-05-19T02:06:13;98802.63;;;12.29;59.66
49611;BME280;35515;48.766;9.176;2023-05-19T02:08:57;98807.00;;;12.30;59.08
49611;BME280;35515;48.766;9.176;2023-05-19T02:11:33;98805.97;;;12.31;59.84
49611;BME280;35515;48.766;9.176;2023-05-19T02:14:03;98809.34;;;12.26;60.40
49611;BME280;35515;48.766;9.176;2023-05-19T02:16:32;98804.09;;;12.25;59.96
49611;BME280;35515;48.766;9.176;2023-05-19T02:19:03;98813.91;;;12.26;60.40
49611;BME280;35515;48.766;9.176;2023-05-19T02:21:29;98810.16;;;12.27;60.05
49611;BME280;35515;48.766;9.176;2023-05-19T02:23:56;98810.75;;;12.29;59.59
49611;BME280;35515;48.766;9.176;2023-05-19T02:26:22;98813.47;;;12.15;60.28
49611;BME280;35515;48.766;9.176;2023-05-19T02:28:49;98803.84;;;12.06;60.85
49611;BME280;35515;48.766;9.176;2023-05-19T02:31:15;98815.16;;;12.16;60.49
49611;BME280;35515;48.766;9.176;2023-05-19T02:33:42;98806.78;;;12.18;60.48
49611;BME280;35515;48.766;9.176;2023-05-19T02:36:09;98808.06;;;12.22;60.91
49611;BME280;35515;48.766;9.176;2023-05-19T02:38:38;98813.47;;;12.29;59.84
49611;BME280;35515;48.766;9.176;2023-05-19T02:41:05;98810.59;;;12.37;59.72
49611;BME280;35515;48.766;9.176;2023-05-19T02:43:31;98815.16;;;12.36;59.16
49611;BME280;35515;48.766;9.176;2023-05-19T02:45:58;98816.03;;;12.30;59.61
49611;BME280;35515;48.766;9.176;2023-05-19T02:48:24;98814.56;;;12.41;59.13
49611;BME280;35515;48.766;9.176;2023-05-19T02:50:51;98804.50;;;12.42;58.70
49611;BME280;35515;48.766;9.176;2023-05-19T02:53:19;98812.03;;;12.26;59.91
49611;BME280;35515;48.766;9.176;2023-05-19T02:55:45;98805.56;;;12.34;59.14
49611;BME280;35515;48.766;9.176;2023-05-19T02:58:12;98804.28;;;12.30;59.27
49611;BME280;35515;48.766;9.176;2023-05-19T03:00:38;98799.28;;;12.20;59.63
49611;BME280;35515;48.766;9.176;2023-05-19T03:03:05;98794.69;;;12.27;59.14
49611;BME280;35515;48.766;9.176;2023-05-19T03:05:31;98792.59;;;12.16;59.58
49611;BME280;35515;48.766;9.176;2023-05-19T03:07:58;98796.13;;;12.10;59.86
49611;BME280;35515;48.766;9.176;2023-05-19T03:10:26;98794.47;;;12.02;60.69
49611;BME280;35515;48.766;9.176;2023-05-19T03:12:52;98797.81;;;12.11;60.74
49611;BME280;35515;48.766;9.176;2023-05-19T03:15:19;98797.16;;;12.02;60.88
49611;BME280;35515;48.766;9.176;2023-05-19T03:17:48;98792.16;;;11.99;61.27
49611;BME280;35515;48.766;9.176;2023-05-19T03:20:15;98792.59;;;11.96;61.46
49611;BME280;35515;48.766;9.176;2023-05-19T03:22:41;98793.84;;;12.00;61.19
49611;BME280;35515;48.766;9.176;2023-05-19T03:25:08;98795.09;;;12.04;61.08
49611;BME280;35515;48.766;9.176;2023-05-19T03:27:36;98799.50;;;12.05;60.84
49611;BME280;35515;48.766;9.176;2023-05-19T03:30:03;98794.88;;;12.06;60.96
49611;BME280;35515;48.766;9.176;2023-05-19T03:32:30;98790.28;;;11.99;61.37
49611;BME280;35515;48.766;9.176;2023-05-19T03:34:58;98795.91;;;11.98;61.29
49611;BME280;35515;48.766;9.176;2023-05-19T03:37:24;98789.19;;;11.94;61.59
49611;BME280;35515;48.766;9.176;2023-05-19T03:39:51;98799.66;;;11.97;61.17
49611;BME280;35515;48.766;9.176;2023-05-19T03:42:17;98793.78;;;11.86;61.74
49611;BME280;35515;48.766;9.176;2023-05-19T03:44:45;98796.91;;;11.83;62.34
49611;BME280;35515;48.766;9.176;2023-05-19T03:47:12;98798.38;;;11.93;62.04
49611;BME280;35515;48.766;9.176;2023-05-19T03:49:39;98800.91;;;11.87;62.25
49611;BME280;35515;48.766;9.176;2023-05-19T03:52:05;98794.19;;;11.83;62.57
49611;BME280;35515;48.766;9.176;2023-05-19T03:54:32;98794.03;;;11.92;62.41
49611;BME280;35515;48.766;9.176;2023-05-19T03:56:58;98802.75;;;11.87;62.38
49611;BME280;35515;48.766;9.176;2023-05-19T03:59:25;98801.94;;;11.86;62.47
49611;BME280;35515;48.766;9.176;2023-05-19T04:01:52;98804.66;;;11.86;62.79
49611;BME280;35515;48.766;9.176;2023-05-19T04:04:19;98803.63;;;11.94;62.68
49611;BME280;35515;48.766;9.176;2023-05-19T04:06:46;98808.41;;;11.92;62.83
49611;BME280;35515;48.766;9.176;2023-05-19T04:09:14;98803.78;;;11.79;63.31
49611;BME280;35515;48.766;9.176;2023-05-19T04:11:41;98808.41;;;11.85;63.48
49611;BME280;35515;48.766;9.176;2023-05-19T04:14:08;98809.88;;;11.81;63.28
49611;BME280;35515;48.766;9.176;2023-05-19T04:16:34;98807.97;;;11.82;63.46
49611;BME280;35515;48.766;9.176;2023-05-19T04:19:02;98820.91;;;11.73;64.38
49611;BME280;35515;48.766;9.176;2023-05-19T04:21:29;98822.19;;;11.77;64.50
49611;BME280;35515;48.766;9.176;2023-05-19T04:23:55;98816.31;;;11.80;64.01
49611;BME280;35515;48.766;9.176;2023-05-19T04:26:24;98817.13;;;11.74;64.32
49611;BME280;35515;48.766;9.176;2023-05-19T04:28:51;98816.31;;;11.80;64.02
49611;BME280;35515;48.766;9.176;2023-05-19T04:31:18;98818.00;;;11.81;63.61
49611;BME280;35515;48.766;9.176;2023-05-19T04:33:45;98818.44;;;11.92;63.06
49611;BME280;35515;48.766;9.176;2023-05-19T04:36:13;98822.56;;;11.74;63.77
49611;BME280;35515;48.766;9.176;2023-05-19T04:38:42;98823.00;;;11.78;63.67
49611;BME280;35515;48.766;9.176;2023-05-19T04:41:10;98818.81;;;11.75;63.73
49611;BME280;35515;48.766;9.176;2023-05-19T04:43:37;98817.13;;;11.74;64.03
49611;BME280;35515;48.766;9.176;2023-05-19T04:46:06;98815.47;;;11.66;64.64
49611;BME280;35515;48.766;9.176;2023-05-19T04:48:34;98819.00;;;11.67;64.51
49611;BME280;35515;48.766;9.176;2023-05-19T04:51:00;98827.38;;;11.72;64.51
49611;BME280;35515;48.766;9.176;2023-05-19T04:53:28;98827.59;;;11.77;64.53
49611;BME280;35515;48.766;9.176;2023-05-19T04:55:56;98830.09;;;11.79;64.58
49611;BME280;35515;48.766;9.176;2023-05-19T04:58:23;98826.72;;;11.70;64.60
49611;BME280;35515;48.766;9.176;2023-05-19T05:00:50;98827.56;;;11.64;65.38
49611;BME280;35515;48.766;9.176;2023-05-19T05:03:16;98826.31;;;11.60;65.03
49611;BME280;35515;48.766;9.176;2023-05-19T05:05:43;98828.13;;;11.52;65.11
49611;BME280;35515;48.766;9.176;2023-05-19T05:08:10;98835.91;;;11.62;64.61
49611;BME280;35515;48.766;9.176;2023-05-19T05:10:38;98832.34;;;11.62;64.59
49611;BME280;35515;48.766;9.176;2023-05-19T05:13:06;98828.16;;;11.59;64.40
49611;BME280;35515;48.766;9.176;2023-05-19T05:15:33;98828.81;;;11.61;64.42
49611;BME280;35515;48.766;9.176;2023-05-19T05:18:00;98829.19;;;11.58;64.34
49611;BME280;35515;48.766;9.176;2023-05-19T05:20:27;98825.09;;;11.69;63.98
49611;BME280;35515;48.766;9.176;2023-05-19T05:22:54;98821.25;;;11.57;64.73
49611;BME280;35515;48.766;9.176;2023-05-19T05:25:22;98822.72;;;11.59;64.48
49611;BME280;35515;48.766;9.176;2023-05-19T05:27:50;98817.13;;;11.74;63.85
49611;BME280;35515;48.766;9.176;2023-05-19T05:30:17;98819.03;;;11.74;64.03
49611;BME280;35515;48.766;9.176;2023-05-19T05:32:43;98823.63;;;11.73;63.84
49611;BME280;35515;48.766;9.176;2023-05-19T05:35:10;98817.34;;;11.73;63.73
49611;BME280;35515;48.766;9.176;2023-05-19T05:37:37;98820.50;;;11.76;63.60
49611;BME280;35515;48.766;9.176;2023-05-19T05:40:04;98816.75;;;11.77;63.61
49611;BME280;35515;48.766;9.176;2023-05-19T05:42:31;98814.22;;;11.62;64.72
49611;BME280;35515;48.766;9.176;2023-05-19T05:44:59;98820.03;;;11.59;64.84
49611;BME280;35515;48.766;9.176;2023-05-19T05:47:26;98821.94;;;11.72;63.92
49611;BME280;35515;48.766;9.176;2023-05-19T05:49:53;98823.84;;;11.78;63.80
49611;BME280;35515;48.766;9.176;2023-05-19T05:52:20;98822.97;;;11.71;64.02
49611;BME280;35515;48.766;9.176;2023-05-19T05:54:48;98832.56;;;11.67;64.51
49611;BME280;35515;48.766;9.176;2023-05-19T05:57:15;98835.50;;;11.65;64.86
49611;BME280;35515;48.766;9.176;2023-05-19T05:59:41;98836.34;;;11.73;64.57
49611;BME280;35515;48.766;9.176;2023-05-19T06:02:11;98831.09;;;11.58;65.55
49611;BME280;35515;48.766;9.176;2023-05-19T06:04:37;98827.94;;;11.61;65.89
49611;BME280;35515;48.766;9.176;2023-05-19T06:07:04;98827.19;;;11.80;64.50
49611;BME280;35515;48.766;9.176;2023-05-19T06:09:31;98834.91;;;11.83;64.87
49611;BME280;35515;48.766;9.176;2023-05-19T06:11:57;98826.75;;;11.83;64.58
49611;BME280;35515;48.766;9.176;2023-05-19T06:14:24;98830.91;;;11.73;65.20
49611;BME280;35515;48.766;9.176;2023-05-19T06:16:51;98834.47;;;11.66;65.93
49611;BME280;35515;48.766;9.176;2023-05-19T06:19:19;98825.09;;;11.76;65.40
49611;BME280;35515;48.766;9.176;2023-05-19T06:21:46;98823.03;;;11.91;64.85
49611;BME280;35515;48.766;9.176;2023-05-19T06:24:13;98813.00;;;11.78;65.53
49611;BME280;35515;48.766;9.176;2023-05-19T06:26:39;98816.31;;;11.80;65.24
49611;BME280;35515;48.766;9.176;2023-05-19T06:29:06;98819.75;;;11.96;65.04
49611;BME280;35515;48.766;9.176;2023-05-19T06:31:32;98808.91;;;12.09;64.21
49611;BME280;35515;48.766;9.176;2023-05-19T06:33:59;98809.72;;;11.96;65.02
49611;BME280;35515;48.766;9.176;2023-05-19T06:36:26;98801.78;;;11.95;64.98
49611;BME280;35515;48.766;9.176;2023-05-19T06:38:53;98813.06;;;11.98;65.18
49611;BME280;35515;48.766;9.176;2023-05-19T06:41:20;98807.44;;;12.07;65.03
49611;BME280;35515;48.766;9.176;2023-05-19T06:43:46;98809.72;;;12.03;64.98
49611;BME280;35515;48.766;9.176;2023-05-19T06:46:15;98813.47;;;12.15;64.91
49611;BME280;35515;48.766;9.176;2023-05-19T06:48:41;98814.53;;;12.01;65.67
49611;BME280;35515;48.766;9.176;2023-05-19T06:51:08;98806.81;;;12.25;64.83
49611;BME280;35515;48.766;9.176;2023-05-19T06:53:36;98812.22;;;12.18;64.99
49611;BME280;35515;48.766;9.176;2023-05-19T06:56:03;98802.63;;;12.22;64.82
49611;BME280;35515;48.766;9.176;2023-05-19T06:58:30;98805.75;;;12.12;65.37
49611;BME280;35515;48.766;9.176;2023-05-19T07:00:56;98808.69;;;12.24;66.13
49611;BME280;35515;48.766;9.176;2023-05-19T07:03:23;98810.16;;;12.33;65.18
49611;BME280;35515;48.766;9.176;2023-05-19T07:05:50;98800.53;;;12.37;65.46
49611;BME280;35515;48.766;9.176;2023-05-19T07:08:16;98806.59;;;12.60;64.17
49611;BME280;35515;48.766;9.176;2023-05-19T07:10:44;98807.63;;;12.59;63.79
49611;BME280;35515;48.766;9.176;2023-05-19T07:13:11;98805.34;;;12.69;63.65
49611;BME280;35515;48.766;9.176;2023-05-19T07:15:37;98807.63;;;12.59;64.62
49611;BME280;35515;48.766;9.176;2023-05-19T07:18:04;98804.91;;;12.59;64.69
49611;BME280;35515;48.766;9.176;2023-05-19T07:20:30;98805.09;;;12.77;64.21
49611;BME280;35515;48.766;9.176;2023-05-19T07:22:57;98804.63;;;12.94;63.16
49611;BME280;35515;48.766;9.176;2023-05-19T07:25:23;98799.19;;;12.94;63.40
49611;BME280;35515;48.766;9.176;2023-05-19T07:27:52;98797.94;;;12.96;63.30
49611;BME280;35515;48.766;9.176;2023-05-19T07:30:19;98795.44;;;12.95;63.24
49611;BME280;35515;48.766;9.176;2023-05-19T07:32:45;98790.00;;;12.95;63.66
49611;BME280;35515;48.766;9.176;2023-05-19T07:35:12;98798.16;;;12.95;63.38
49611;BME280;35515;48.766;9.176;2023-05-19T07:37:38;98790.81;;;13.02;63.43
49611;BME280;35515;48.766;9.176;2023-05-19T07:40:06;98786.19;;;13.16;62.75
49611;BME280;35515;48.766;9.176;2023-05-19T07:42:33;98793.28;;;13.24;62.48
49611;BME280;35515;48.766;9.176;2023-05-19T07:45:01;98793.06;;;13.18;62.48
49611;BME280;35515;48.766;9.176;2023-05-19T07:47:28;98792.88;;;13.13;62.57
49611;BME280;35515;48.766;9.176;2023-05-19T07:49:55;98793.63;;;13.34;61.70
49611;BME280;35515;48.766;9.176;2023-05-19T07:52:21;98787.56;;;13.32;61.71
49611;BME280;35515;48.766;9.176;2023-05-19T07:54:48;98786.94;;;13.36;61.28
49611;BME280;35515;48.766;9.176;2023-05-19T07:57:14;98776.91;;;13.30;61.61
49611;BME280;35515;48.766;9.176;2023-05-19T07:59:41;98785.72;;;13.19;62.30
49611;BME280;35515;48.766;9.176;2023-05-19T08:02:09;98779.84;;;13.22;62.12
49611;BME280;35515;48.766;9.176;2023-05-19T08:04:35;98778.97;;;13.35;61.35
49611;BME280;35515;48.766;9.176;2023-05-19T08:07:02;98775.66;;;13.40;61.23
49611;BME280;35515;48.766;9.176;2023-05-19T08:09:28;98781.50;;;13.36;61.50
49611;BME280;35515;48.766;9.176;2023-05-19T08:11:55;98779.78;;;13.35;61.52
49611;BME280;35515;48.766;9.176;2023-05-19T08:14:22;98777.13;;;13.22;62.46
49611;BME280;35515;48.766;9.176;2023-05-19T08:16:48;98767.28;;;13.28;62.06
49611;BME280;35515;48.766;9.176;2023-05-19T08:19:17;98768.09;;;13.42;60.45
49611;BME280;35515;48.766;9.176;2023-05-19T08:21:43;98767.91;;;13.36;60.84
49611;BME280;35515;48.766;9.176;2023-05-19T08:24:10;98771.03;;;13.40;60.54
49611;BME280;35515;48.766;9.176;2023-05-19T08:26:36;98769.34;;;13.32;60.86
49611;BME280;35515;48.766;9.176;2023-05-19T08:29:03;98765.16;;;13.43;60.29
49611;BME280;35515;48.766;9.176;2023-05-19T08:31:29;98768.31;;;13.33;60.79
49611;BME280;35515;48.766;9.176;2023-05-19T08:33:56;98761.63;;;13.29;61.52
49611;BME280;35515;48.766;9.176;2023-05-19T08:36:24;98767.91;;;13.30;61.04
49611;BME280;35515;48.766;9.176;2023-05-19T08:38:51;98764.50;;;13.48;60.18
49611;BME280;35515;48.766;9.176;2023-05-19T08:41:18;98762.22;;;13.38;60.44
49611;BME280;35515;48.766;9.176;2023-05-19T08:43:45;98765.59;;;13.33;60.97
49611;BME280;35515;48.766;9.176;2023-05-19T08:46:12;98764.13;;;13.37;60.02
49611;BME280;35515;48.766;9.176;2023-05-19T08:48:41;98755.75;;;13.39;60.32
49611;BME280;35515;48.766;9.176;2023-05-19T08:51:13;98755.75;;;13.39;60.44
49611;BME280;35515;48.766;9.176;2023-05-19T08:53:47;98744.16;;;13.57;59.52
49611;BME280;35515;48.766;9.176;2023-05-19T08:56:18;98757.19;;;13.42;60.03
49611;BME280;35515;48.766;9.176;2023-05-19T08:58:48;98755.25;;;13.56;59.58
49611;BME280;35515;48.766;9.176;2023-05-19T09:01:15;98756.78;;;13.38;60.25
49611;BME280;35515;48.766;9.176;2023-05-19T09:03:42;98762.56;;;13.55;59.83
49611;BME280;35515;48.766;9.176;2023-05-19T09:06:10;98757.97;;;13.56;59.58
49611;BME280;35515;48.766;9.176;2023-05-19T09:08:38;98758.59;;;13.58;59.79
49611;BME280;35515;48.766;9.176;2023-05-19T09:11:06;98754.16;;;13.63;59.39
49611;BME280;35515;48.766;9.176;2023-05-19T09:13:32;98760.06;;;13.53;59.80
49611;BME280;35515;48.766;9.176;2023-05-19T09:15:59;98755.81;;;13.64;59.37
49611;BME280;35515;48.766;9.176;2023-05-19T09:18:26;98752.59;;;13.74;59.11
49611;BME280;35515;48.766;9.176;2023-05-19T09:20:55;98747.53;;;13.84;58.72
49611;BME280;35515;48.766;9.176;2023-05-19T09:23:26;98750.69;;;13.81;58.78
49611;BME280;35515;48.766;9.176;2023-05-19T09:25:54;98754.06;;;13.77;58.86
49611;BME280;35515;48.766;9.176;2023-05-19T09:28:26;98752.00;;;13.72;59.18
49611;BME280;35515;48.766;9.176;2023-05-19T09:31:00;98760.19;;;13.72;58.91
49611;BME280;35515;48.766;9.176;2023-05-19T09:33:27;98757.50;;;13.65;59.44
49611;BME280;35515;48.766;9.176;2023-05-19T09:35:53;98760.78;;;13.74;59.26
49611;BME280;35515;48.766;9.176;2023-05-19T09:38:21;98753.22;;;13.76;59.02
49611;BME280;35515;48.766;9.176;2023-05-19T09:40:47;98755.78;;;13.71;59.64
49611;BME280;35515;48.766;9.176;2023-05-19T09:43:15;98757.91;;;13.69;59.81
49611;BME280;35515;48.766;9.176;2023-05-19T09:45:43;98750.28;;;13.78;59.55
49611;BME280;35515;48.766;9.176;2023-05-19T09:48:10;98751.91;;;13.85;59.23
49611;BME280;35515;48.766;9.176;2023-05-19T09:50:36;98741.56;;;13.69;59.50
49611;BME280;35515;48.766;9.176;2023-05-19T09:53:03;98742.13;;;13.78;59.66
49611;BME280;35515;48.766;9.176;2023-05-19T09:55:30;98742.34;;;13.76;59.79
49611;BME280;35515;48.766;9.176;2023-05-19T09:57:58;98733.47;;;13.87;59.01
49611;BME280;35515;48.766;9.176;2023-05-19T10:00:29;98740.03;;;13.80;60.37
49611;BME280;35515;48.766;9.176;2023-05-19T10:02:59;98725.56;;;13.79;59.70
49611;BME280;35515;48.766;9.176;2023-05-19T10:05:26;98738.41;;;13.97;59.15
49611;BME280;35515;48.766;9.176;2023-05-19T10:07:54;98736.69;;;14.03;58.96
49611;BME280;35515;48.766;9.176;2023-05-19T10:10:21;98738.38;;;14.04;58.75
49611;BME280;35515;48.766;9.176;2023-05-19T10:12:48;98736.63;;;14.10;58.16
49611;BME280;35515;48.766;9.176;2023-05-19T10:15:17;98738.72;;;14.14;57.99
49611;BME280;35515;48.766;9.176;2023-05-19T10:17:44;98743.00;;;14.03;58.51
49611;BME280;35515;48.766;9.176;2023-05-19T10:20:13;98738.81;;;14.01;58.22
49611;BME280;35515;48.766;9.176;2023-05-19T10:22:41;98739.13;;;14.11;58.02
49611;BME280;35515;48.766;9.176;2023-05-19T10:25:09;98747.13;;;14.06;58.36
49611;BME280;35515;48.766;9.176;2023-05-19T10:27:39;98733.38;;;14.01;58.74
49611;BME280;35515;48.766;9.176;2023-05-19T10:30:12;98740.97;;;13.92;58.94
49611;BME280;35515;48.766;9.176;2023-05-19T10:32:41;98731.94;;;13.98;58.47
49611;BME280;35515;48.766;9.176;2023-05-19T10:35:27;98736.69;;;14.03;58.51
49611;BME280;35515;48.766;9.176;2023-05-19T10:38:08;98734.09;;;14.15;58.06
49611;BME280;35515;48.766;9.176;2023-05-19T10:40:40;98735.59;;;14.11;58.33
49611;BME280;35515;48.766;9.176;2023-05-19T10:43:19;98735.13;;;14.14;58.31
49611;BME280;35515;48.766;9.176;2023-05-19T10:45:48;98722.38;;;14.14;58.15
49611;BME280;35515;48.766;9.176;2023-05-19T10:48:18;98731.94;;;14.24;57.63
49611;BME280;35515;48.766;9.176;2023-05-19T10:50:47;98729.91;;;14.12;58.04
49611;BME280;35515;48.766;9.176;2023-05-19T10:53:14;98729.09;;;14.12;57.65
49611;BME280;35515;48.766;9.176;2023-05-19T10:55:46;98730.78;;;14.06;57.46
49611;BME280;35515;48.766;9.176;2023-05-19T10:58:35;98726.25;;;14.00;58.17
49611;BME280;35515;48.766;9.176;2023-05-19T11:01:06;98727.75;;;13.96;58.37
49611;BME280;35515;48.766;9.176;2023-05-19T11:03:43;98723.75;;;13.98;58.39
49611;BME280;35515;48.766;9.176;2023-05-19T11:06:18;98718.41;;;13.85;59.35
49611;BME280;35515;48.766;9.176;2023-05-19T11:08:44;98727.88;;;14.08;58.25
49611;BME280;35515;48.766;9.176;2023-05-19T11:11:13;98736.75;;;13.96;58.45
49611;BME280;35515;48.766;9.176;2023-05-19T11:13:44;98720.41;;;13.96;58.83
49611;BME280;35515;48.766;9.176;2023-05-19T11:16:12;98725.25;;;13.94;58.57
49611;BME280;35515;48.766;9.176;2023-05-19T11:18:38;98721.84;;;13.99;58.45
49611;BME280;35515;48.766;9.176;2023-05-19T11:21:05;98731.69;;;14.00;58.60
49611;BME280;35515;48.766;9.176;2023-05-19T11:23:36;98724.97;;;14.02;58.11
49611;BME280;35515;48.766;9.176;2023-05-19T11:26:05;98723.75;;;13.98;58.78
49611;BME280;35515;48.766;9.176;2023-05-19T11:28:32;98720.06;;;14.11;58.08
49611;BME280;35515;48.766;9.176;2023-05-19T11:30:59;98726.44;;;14.05;58.03
49611;BME280;35515;48.766;9.176;2023-05-19T11:33:26;98730.19;;;14.04;58.53
49611;BME280;35515;48.766;9.176;2023-05-19T11:35:54;98723.19;;;14.15;58.14
49611;BME280;35515;48.766;9.176;2023-05-19T11:38:22;98728.25;;;14.11;58.17
49611;BME280;35515;48.766;9.176;2023-05-19T11:40:53;98715.25;;;14.13;57.90
49611;BME280;35515;48.766;9.176;2023-05-19T11:43:21;98725.97;;;14.08;58.27
49611;BME280;35515;48.766;9.176;2023-05-19T11:45:48;98720.41;;;14.21;57.65
49611;BME280;35515;48.766;9.176;2023-05-19T11:48:15;98724.81;;;14.23;57.39
49611;BME280;35515;48.766;9.176;2023-05-19T11:50:42;98720.81;;;14.25;57.08
49611;BME280;35515;48.766;9.176;2023-05-19T11:53:10;98718.91;;;14.26;57.24
49611;BME280;35515;48.766;9.176;2023-05-19T11:55:41;98707.13;;;14.32;57.09
49611;BME280;35515;48.766;9.176;2023-05-19T11:58:09;98708.91;;;14.19;57.62
49611;BME280;35515;48.766;9.176;2023-05-19T12:00:37;98709.50;;;14.21;57.55
49611;BME280;35515;48.766;9.176;2023-05-19T12:03:05;98711.34;;;14.28;57.20
49611;BME280;35515;48.766;9.176;2023-05-19T12:05:32;98705.97;;;14.21;57.49
49611;BME280;35515;48.766;9.176;2023-05-19T12:08:01;98710.06;;;14.30;57.22
49611;BME280;35515;48.766;9.176;2023-05-19T12:10:30;98702.72;;;14.31;56.75
49611;BME280;35515;48.766;9.176;2023-05-19T12:12:58;98701.34;;;14.21;57.30
49611;BME280;35515;48.766;9.176;2023-05-19T12:15:26;98708.22;;;14.24;57.57
49611;BME280;35515;48.766;9.176;2023-05-19T12:17:55;98714.50;;;14.25;57.62
49611;BME280;35515;48.766;9.176;2023-05-19T12:20:23;98706.72;;;14.28;57.51
49611;BME280;35515;48.766;9.176;2023-05-19T12:22:50;98712.41;;;14.27;57.59
49611;BME280;35515;48.766;9.176;2023-05-19T12:25:17;98713.03;;;14.47;56.94
49611;BME280;35515;48.766;9.176;2023-05-19T12:27:45;98717.88;;;14.45;56.49
49611;BME280;35515;48.766;9.176;2023-05-19T12:30:12;98710.00;;;14.37;56.90
49611;BME280;35515;48.766;9.176;2023-05-19T12:32:41;98719.47;;;14.34;57.41
49611;BME280;35515;48.766;9.176;2023-05-19T12:35:09;98714.84;;;14.35;57.36
49611;BME280;35515;48.766;9.176;2023-05-19T12:37:39;98722.19;;;14.34;57.27
49611;BME280;35515;48.766;9.176;2023-05-19T12:40:08;98717.09;;;14.38;57.27
49611;BME280;35515;48.766;9.176;2023-05-19T12:42:34;98722.19;;;14.34;57.47
49611;BME280;35515;48.766;9.176;2023-05-19T12:45:03;98712.41;;;14.27;57.87
49611;BME280;35515;48.766;9.176;2023-05-19T12:47:30;98716.78;;;14.28;58.48
49611;BME280;35515;48.766;9.176;2023-05-19T12:50:04;98706.19;;;14.38;58.92
49611;BME280;35515;48.766;9.176;2023-05-19T12:52:33;98716.22;;;14.44;57.73
49611;BME280;35515;48.766;9.176;2023-05-19T12:55:02;98719.50;;;14.53;57.20
49611;BME280;35515;48.766;9.176;2023-05-19T12:57:33;98710.31;;;14.47;57.24
49611;BME280;35515;48.766;9.176;2023-05-19T13:00:01;98707.88;;;14.39;57.51
49611;BME280;35515;48.766;9.176;2023-05-19T13:02:29;98710.59;;;14.39;57.85
49611;BME280;35515;48.766;9.176;2023-05-19T13:04:55;98709.53;;;14.40;57.52
49611;BME280;35515;48.766;9.176;2023-05-19T13:07:24;98720.44;;;14.40;57.34